LFQQ METAR and TAF | Updated Today

LFQQ METAR

Lille-Lesquin Airport

Observation time: 4 min. ago

LFQQ 061930Z AUTO VRB02KT CAVOK 13/08 Q1029 NOSIG

Need help? Read our tutorial on how to read METARs or read the parsed version below.

Lille-Lesquin Airport (LFQQ) METAR

  • Weather conditions on Thu, 06 Oct 2022 19:30:00 +0000 (4 min. ago):
  • Present conditions: Dry
  • Clouds: Clear skies
  • Visibility: Greater than 10 km
  • Wind: Variable at 2 knots
  • Temperature: 13 celsius
  • Dew point: 8 celsius
  • Pressure: 1029 millibars
  • Remarks: None


Useful to know...

LFQQ TAF

Lille-Lesquin Airport

TAF LFQQ 061700Z 0618/0724 18005KT 9999 SCT040 BECMG 0708/0711 24012KT
Observation time: 2:34 hr. ago
Need help? Read our tutorial on how to read TAFs or read the parsed version below.

Parsed version of TAF for Lille-Lesquin Airport (LFQQ)

  • From 06 October at 18:00 UTC, to day 07 of the month at 24:00 UTC
  • Clouds: Scattered at 1219 meters
  • Visibility: Greater than 10 km
  • Wind: 180 degrees at 5
  • Expected to arise soon, from 07 October at 08:00 UTC, to day 07 of the month at 11:00 UTC
  • Wind: 240 degrees at 12

Airports near LFQQ

EBOS Weather
IATA: OST
Region: Ostend

Ostend-Bruges International Airport

Found in our database
LFAQ Weather
Region: Albert/Bray

Albert-Bray Airport

Not found in our database